Time;durP1;ratioP1;P1;durP2;ratioP2;P2;SDS_P1;SDS_P2;PMS_P1;PMS_P2;Temp;Humidity;BMP_temperature;BMP_pressure;BME280_temperature;BME280_humidity;BME280_pressure;Samples;Min_cycle;Max_cycle;Signal;HPM_P1;HPM_P2
2024/01/03 00:01:42;;;;;;;33.73;23.00;;;7.80;99.90;;;;;;6244719;23;20000;-72
2024/01/03 00:04:09;;;;;;;27.73;20.63;;;7.90;99.90;;;;;;6218074;23;20008;-73
2024/01/03 00:06:34;;;;;;;29.90;21.90;;;7.90;99.90;;;;;;6217907;23;20307;-73
2024/01/03 00:09:01;;;;;;;29.27;21.20;;;7.90;99.90;;;;;;6244482;23;20015;-73
2024/01/03 00:11:32;;;;;;;26.97;21.27;;;7.90;99.90;;;;;;6244973;23;20004;-72
2024/01/03 00:14:06;;;;;;;29.43;21.90;;;7.90;99.90;;;;;;6244863;23;20008;-72
2024/01/03 00:16:35;;;;;;;30.07;22.83;;;7.80;99.90;;;;;;6244727;23;20001;-73
2024/01/03 00:19:03;;;;;;;33.87;22.90;;;7.80;99.90;;;;;;6244671;23;20023;-72
2024/01/03 00:21:30;;;;;;;35.50;24.40;;;7.80;99.90;;;;;;6244343;23;20469;-73
2024/01/03 00:24:04;;;;;;;33.37;23.37;;;7.80;99.90;;;;;;6244732;23;20003;-73
2024/01/03 00:26:32;;;;;;;35.43;25.30;;;7.80;99.90;;;;;;6245278;23;20000;-72
2024/01/03 00:28:58;;;;;;;33.03;23.17;;;7.80;99.90;;;;;;6246697;23;20003;-73
2024/01/03 00:31:41;;;;;;;34.60;24.80;;;7.80;99.90;;;;;;6246795;23;20007;-73
2024/01/03 00:34:12;;;;;;;35.33;23.92;;;7.80;99.90;;;;;;6246696;23;20044;-73
2024/01/03 00:36:37;;;;;;;35.77;24.10;;;7.80;99.90;;;;;;6246655;23;20076;-72
2024/01/03 00:39:03;;;;;;;33.43;25.00;;;7.80;99.90;;;;;;6246663;23;20078;-72
2024/01/03 00:41:30;;;;;;;32.87;22.77;;;7.80;99.90;;;;;;6246487;23;20097;-72
2024/01/03 00:43:56;;;;;;;34.93;24.20;;;7.80;99.90;;;;;;6246365;23;20004;-73
2024/01/03 00:46:22;;;;;;;38.20;25.03;;;7.80;99.90;;;;;;6246494;23;20075;-72
2024/01/03 00:48:47;;;;;;;36.63;24.80;;;7.80;99.90;;;;;;6246336;23;20001;-72
2024/01/03 00:51:13;;;;;;;36.80;25.63;;;7.80;99.90;;;;;;6246533;23;20019;-73
2024/01/03 00:53:39;;;;;;;35.83;24.83;;;7.80;99.90;;;;;;6246168;23;20012;-72
2024/01/03 00:56:06;;;;;;;38.87;24.63;;;7.80;99.90;;;;;;6246542;23;20007;-72
2024/01/03 00:58:33;;;;;;;36.33;23.83;;;7.80;99.90;;;;;;6246794;23;20008;-72
2024/01/03 01:00:58;;;;;;;35.57;23.83;;;7.90;99.90;;;;;;6246220;23;20004;-72
2024/01/03 01:03:24;;;;;;;34.53;24.40;;;7.90;99.90;;;;;;6246275;23;20304;-72
2024/01/03 01:05:50;;;;;;;38.30;23.77;;;7.90;99.90;;;;;;6246321;23;20008;-72
2024/01/03 01:08:16;;;;;;;37.13;25.03;;;7.90;99.90;;;;;;6246438;23;20050;-72
2024/01/03 01:10:42;;;;;;;35.80;25.83;;;7.90;99.90;;;;;;6246471;23;20030;-73
2024/01/03 01:13:08;;;;;;;39.07;24.83;;;7.90;99.90;;;;;;6246214;23;20000;-73
2024/01/03 01:15:33;;;;;;;39.43;26.10;;;7.90;99.90;;;;;;6246278;23;20015;-72
2024/01/03 01:17:59;;;;;;;37.43;26.47;;;7.90;99.90;;;;;;6219205;23;20004;-73
2024/01/03 01:20:25;;;;;;;41.43;26.33;;;7.90;99.90;;;;;;6245887;23;20008;-73
2024/01/03 01:22:50;;;;;;;39.33;27.47;;;7.90;99.90;;;;;;6245746;23;20007;-72
2024/01/03 01:25:17;;;;;;;45.47;27.20;;;7.90;99.90;;;;;;6246356;23;20092;-73
2024/01/03 01:27:43;;;;;;;38.73;26.77;;;7.90;99.90;;;;;;6246171;23;20040;-73
2024/01/03 01:30:09;;;;;;;40.07;24.47;;;7.90;99.90;;;;;;6246095;23;20077;-73
2024/01/03 01:32:35;;;;;;;34.50;22.47;;;7.90;99.90;;;;;;6246347;23;20026;-73
2024/01/03 01:35:01;;;;;;;34.57;20.13;;;8.00;99.90;;;;;;6246102;23;20040;-73
2024/01/03 01:37:26;;;;;;;32.50;19.13;;;7.90;99.90;;;;;;6245656;23;20003;-72
2024/01/03 01:39:52;;;;;;;31.50;17.80;;;8.00;99.90;;;;;;6245892;23;20008;-73
2024/01/03 01:42:18;;;;;;;29.17;16.40;;;8.00;99.90;;;;;;6245883;23;19996;-72
2024/01/03 01:44:43;;;;;;;25.33;15.43;;;8.10;99.90;;;;;;6245808;23;20011;-73
2024/01/03 01:47:11;;;;;;;25.63;15.40;;;8.10;99.90;;;;;;6245607;23;20000;-72
2024/01/03 01:49:39;;;;;;;33.90;22.63;;;8.10;99.90;;;;;;6245517;23;20283;-73
2024/01/03 01:52:09;;;;;;;39.67;25.13;;;8.10;99.90;;;;;;6245816;23;20326;-73
2024/01/03 01:54:36;;;;;;;39.53;25.90;;;8.10;99.90;;;;;;6245726;23;20020;-72
2024/01/03 01:57:03;;;;;;;36.30;24.10;;;8.00;99.90;;;;;;6245713;23;20430;-73
2024/01/03 01:59:29;;;;;;;37.93;24.60;;;8.10;99.90;;;;;;6242109;23;20509;-72
2024/01/03 02:01:57;;;;;;;36.53;24.37;;;8.00;99.90;;;;;;6241859;23;20423;-73
2024/01/03 02:04:23;;;;;;;38.30;25.23;;;8.00;99.90;;;;;;6243218;23;20018;-72
2024/01/03 02:06:49;;;;;;;35.83;24.67;;;8.10;99.90;;;;;;6245021;23;19996;-73
2024/01/03 02:09:14;;;;;;;36.23;24.53;;;8.10;99.90;;;;;;6245287;23;20358;-72
2024/01/03 02:11:46;;;;;;;40.83;25.73;;;8.10;99.90;;;;;;6245382;23;20043;-73
2024/01/03 02:14:12;;;;;;;39.03;25.90;;;8.10;99.90;;;;;;6245006;23;20019;-72
2024/01/03 02:16:37;;;;;;;38.73;26.17;;;8.10;99.90;;;;;;6218986;23;20082;-72
2024/01/03 02:19:06;;;;;;;38.63;25.77;;;8.10;99.90;;;;;;6245668;23;20138;-72
2024/01/03 02:21:32;;;;;;;39.97;27.37;;;8.00;99.90;;;;;;6245084;23;20075;-72
2024/01/03 02:23:57;;;;;;;37.90;25.73;;;8.00;99.90;;;;;;6245779;23;20028;-73
2024/01/03 02:26:23;;;;;;;35.97;25.60;;;8.00;99.90;;;;;;6245682;23;20000;-73
2024/01/03 02:28:49;;;;;;;36.43;25.03;;;8.00;99.90;;;;;;6244939;23;20431;-73
2024/01/03 02:31:14;;;;;;;38.87;26.43;;;8.00;99.90;;;;;;6245110;23;20135;-73
2024/01/03 02:33:40;;;;;;;38.60;27.20;;;8.00;99.90;;;;;;6245128;23;20071;-73
2024/01/03 02:36:06;;;;;;;40.57;25.83;;;8.00;99.90;;;;;;6244724;23;19996;-72
2024/01/03 02:38:32;;;;;;;35.20;24.80;;;8.00;99.90;;;;;;6245024;23;20004;-72
2024/01/03 02:40:58;;;;;;;37.23;25.20;;;8.00;99.90;;;;;;6244494;23;20019;-73
2024/01/03 02:43:24;;;;;;;34.77;24.90;;;8.00;99.90;;;;;;6244362;23;20007;-73
2024/01/03 02:45:50;;;;;;;35.13;24.80;;;8.00;99.90;;;;;;6245195;23;19996;-73
2024/01/03 02:48:16;;;;;;;33.23;23.73;;;8.00;99.90;;;;;;6245213;23;20058;-73
2024/01/03 02:50:47;;;;;;;36.13;24.87;;;8.10;99.90;;;;;;6218349;23;20046;-73
2024/01/03 02:53:14;;;;;;;37.60;23.30;;;8.10;99.90;;;;;;6245023;23;20087;-72
2024/01/03 02:55:39;;;;;;;32.30;23.57;;;8.10;99.90;;;;;;6245484;23;20400;-73
2024/01/03 02:58:05;;;;;;;33.83;21.90;;;8.10;99.90;;;;;;6245099;23;20004;-73
2024/01/03 03:00:31;;;;;;;30.67;20.30;;;8.10;99.90;;;;;;6244913;23;20001;-72
2024/01/03 03:02:57;;;;;;;25.47;15.13;;;8.10;99.90;;;;;;6245122;23;20070;-73
2024/01/03 03:05:23;;;;;;;25.37;16.07;;;8.10;99.90;;;;;;6218093;23;20438;-72
2024/01/03 03:07:48;;;;;;;27.93;16.40;;;8.10;99.90;;;;;;6245139;23;20004;-72
2024/01/03 03:10:15;;;;;;;27.40;17.27;;;8.10;99.90;;;;;;6244934;23;20004;-73
2024/01/03 03:12:41;;;;;;;25.60;18.57;;;8.10;99.90;;;;;;6245150;23;20040;-73
2024/01/03 03:15:07;;;;;;;30.53;18.83;;;8.10;99.90;;;;;;6244526;23;20015;-73
2024/01/03 03:17:33;;;;;;;29.83;18.10;;;8.10;99.90;;;;;;6244567;23;20020;-73
2024/01/03 03:19:59;;;;;;;30.17;19.53;;;8.10;99.90;;;;;;6244572;23;20027;-72
2024/01/03 03:22:24;;;;;;;33.70;18.30;;;8.20;99.90;;;;;;6244756;23;19992;-72
2024/01/03 03:24:50;;;;;;;31.97;17.53;;;8.20;99.90;;;;;;6244915;23;20004;-73
2024/01/03 03:27:16;;;;;;;28.83;19.70;;;8.20;99.90;;;;;;6245186;23;20084;-73
2024/01/03 03:29:41;;;;;;;30.37;19.67;;;8.10;99.90;;;;;;6244959;23;20046;-73
2024/01/03 03:32:07;;;;;;;30.80;19.20;;;8.10;99.90;;;;;;6218046;23;20012;-73
2024/01/03 03:34:33;;;;;;;30.20;19.07;;;8.10;99.90;;;;;;6244810;23;20146;-72
2024/01/03 03:37:01;;;;;;;28.93;18.90;;;8.10;99.90;;;;;;6245035;23;20004;-72
2024/01/03 03:39:26;;;;;;;30.83;18.83;;;8.20;99.90;;;;;;6244840;23;20004;-73
2024/01/03 03:41:52;;;;;;;29.67;18.87;;;8.10;99.90;;;;;;6245190;23;20381;-72
2024/01/03 03:44:18;;;;;;;25.97;16.70;;;8.10;99.90;;;;;;6245145;23;20010;-72
2024/01/03 03:46:44;;;;;;;25.90;15.10;;;8.10;99.90;;;;;;6245032;23;20003;-72
2024/01/03 03:49:09;;;;;;;16.70;11.67;;;8.10;99.90;;;;;;6245029;23;20008;-73
2024/01/03 03:51:35;;;;;;;19.23;13.10;;;8.10;99.90;;;;;;6245289;23;20055;-73
2024/01/03 03:54:01;;;;;;;23.87;12.87;;;8.10;99.90;;;;;;6205979;23;20062;-73
2024/01/03 03:56:30;;;;;;;20.93;13.50;;;8.20;99.90;;;;;;6214727;23;20064;-72
2024/01/03 03:58:56;;;;;;;21.43;14.43;;;8.20;99.90;;;;;;6214357;23;20100;-72
2024/01/03 04:01:22;;;;;;;19.63;12.57;;;8.20;99.90;;;;;;6215028;23;20304;-73
2024/01/03 04:03:47;;;;;;;23.80;14.87;;;8.20;99.90;;;;;;6216817;23;20084;-72
2024/01/03 04:06:15;;;;;;;23.83;16.17;;;8.20;99.90;;;;;;6216975;23;20039;-73
2024/01/03 04:08:45;;;;;;;28.13;18.60;;;8.20;99.90;;;;;;6216542;23;20007;-72
2024/01/03 04:11:11;;;;;;;27.73;18.43;;;8.30;99.90;;;;;;6217408;23;20323;-73
2024/01/03 04:13:40;;;;;;;34.83;20.13;;;8.30;99.90;;;;;;6216266;23;20034;-72
2024/01/03 04:16:08;;;;;;;29.40;20.53;;;8.20;99.90;;;;;;6216542;23;19997;-72
2024/01/03 04:18:36;;;;;;;31.97;19.57;;;8.20;99.90;;;;;;6216414;23;20047;-73
2024/01/03 04:21:05;;;;;;;34.00;21.27;;;8.20;99.90;;;;;;6214942;23;20429;-72
2024/01/03 04:23:31;;;;;;;33.17;20.43;;;8.20;99.90;;;;;;6216215;23;19997;-72
2024/01/03 04:25:57;;;;;;;35.00;21.53;;;8.20;99.90;;;;;;6216192;23;20004;-72
2024/01/03 04:28:23;;;;;;;33.63;22.10;;;8.20;99.90;;;;;;6216153;23;20005;-72
2024/01/03 04:30:49;;;;;;;30.30;19.47;;;8.20;99.90;;;;;;6216547;23;20000;-73
2024/01/03 04:33:15;;;;;;;27.83;19.23;;;8.20;99.90;;;;;;6216250;23;20084;-72
2024/01/03 04:35:40;;;;;;;30.50;19.67;;;8.20;99.90;;;;;;6216369;23;20084;-73
2024/01/03 04:38:06;;;;;;;30.13;20.10;;;8.20;99.90;;;;;;6216156;23;20101;-73
2024/01/03 04:40:33;;;;;;;35.30;19.93;;;8.20;99.90;;;;;;6216620;23;20008;-73
2024/01/03 04:42:59;;;;;;;33.27;19.90;;;8.20;99.90;;;;;;6216219;23;19997;-73
2024/01/03 04:45:25;;;;;;;33.33;20.60;;;8.20;99.90;;;;;;6216105;23;20008;-72
2024/01/03 04:47:50;;;;;;;29.83;19.03;;;8.20;99.90;;;;;;6216041;23;20005;-73
2024/01/03 04:50:17;;;;;;;26.87;19.33;;;8.20;99.90;;;;;;6189280;23;20092;-72
2024/01/03 04:52:43;;;;;;;26.40;18.47;;;8.30;99.90;;;;;;6215942;23;20009;-73
2024/01/03 04:55:09;;;;;;;32.43;18.90;;;8.30;99.90;;;;;;6239043;23;20095;-73
2024/01/03 04:57:36;;;;;;;27.97;17.63;;;8.30;99.90;;;;;;6246341;23;20045;-73
2024/01/03 05:00:04;;;;;;;28.70;18.33;;;8.30;99.90;;;;;;6246964;23;20078;-73
2024/01/03 05:02:30;;;;;;;28.77;18.17;;;8.20;99.90;;;;;;6246275;23;20062;-73
2024/01/03 05:04:56;;;;;;;31.20;20.43;;;8.20;99.90;;;;;;6246083;23;20095;-73
2024/01/03 05:07:22;;;;;;;34.17;20.50;;;8.30;99.90;;;;;;6245853;23;20002;-72
2024/01/03 05:09:48;;;;;;;30.57;20.20;;;8.20;99.90;;;;;;6245826;23;20000;-72
2024/01/03 05:12:14;;;;;;;30.03;19.43;;;8.20;99.90;;;;;;6245017;23;20008;-73
2024/01/03 05:14:39;;;;;;;32.83;19.53;;;8.30;99.90;;;;;;6245973;23;20016;-73
2024/01/03 05:17:05;;;;;;;34.87;20.03;;;8.30;99.90;;;;;;6246092;23;19996;-72
2024/01/03 05:19:31;;;;;;;30.73;19.70;;;8.30;99.90;;;;;;6246470;23;20004;-73
2024/01/03 05:21:57;;;;;;;28.43;18.63;;;8.20;99.90;;;;;;6246324;23;20000;-73
2024/01/03 05:24:22;;;;;;;31.73;19.53;;;8.20;99.90;;;;;;6246032;23;20004;-73
2024/01/03 05:26:48;;;;;;;28.47;18.03;;;8.20;99.90;;;;;;6245697;23;20074;-73
2024/01/03 05:29:14;;;;;;;29.07;17.37;;;8.20;99.90;;;;;;6246243;23;20066;-73
2024/01/03 05:31:40;;;;;;;28.60;17.37;;;8.20;99.90;;;;;;6246079;23;20000;-72
2024/01/03 05:34:07;;;;;;;24.73;16.60;;;8.20;99.90;;;;;;6245968;23;20035;-73
2024/01/03 05:36:32;;;;;;;29.27;17.73;;;8.20;99.90;;;;;;6245934;23;20004;-73
2024/01/03 05:38:58;;;;;;;26.80;16.93;;;8.20;99.90;;;;;;6245936;23;20053;-74
2024/01/03 05:41:24;;;;;;;26.30;16.40;;;8.20;99.90;;;;;;6245734;23;20007;-72
2024/01/03 05:43:50;;;;;;;26.67;16.50;;;8.20;99.90;;;;;;6245845;23;20069;-73
2024/01/03 05:46:15;;;;;;;24.37;15.33;;;8.10;99.90;;;;;;6245871;23;20046;-73
2024/01/03 05:48:42;;;;;;;23.03;15.30;;;8.20;99.90;;;;;;6245861;23;19997;-73
2024/01/03 05:51:08;;;;;;;26.43;15.73;;;8.10;99.90;;;;;;6245978;23;20011;-73
2024/01/03 05:53:34;;;;;;;23.17;15.13;;;8.10;99.90;;;;;;6245664;23;20004;-73
2024/01/03 05:56:00;;;;;;;23.70;14.23;;;8.10;99.90;;;;;;6245940;23;20023;-71
2024/01/03 05:58:26;;;;;;;20.93;12.80;;;8.20;99.90;;;;;;6245922;23;20377;-70
2024/01/03 06:00:52;;;;;;;21.63;13.27;;;8.20;99.90;;;;;;6244891;23;19996;-72
2024/01/03 06:03:18;;;;;;;22.27;13.60;;;8.20;99.90;;;;;;6245060;23;20011;-72
2024/01/03 06:05:43;;;;;;;23.97;14.87;;;8.20;99.90;;;;;;6245437;23;20029;-72
2024/01/03 06:08:09;;;;;;;21.93;13.73;;;8.20;99.90;;;;;;6245579;23;20058;-72
2024/01/03 06:10:35;;;;;;;22.23;14.70;;;8.20;99.90;;;;;;6245786;23;20068;-72
2024/01/03 06:13:01;;;;;;;20.70;14.00;;;8.20;99.90;;;;;;6245257;23;20031;-72
2024/01/03 06:15:27;;;;;;;22.33;14.17;;;8.20;99.90;;;;;;6245818;23;20058;-72
2024/01/03 06:17:53;;;;;;;24.03;15.03;;;8.20;99.90;;;;;;6245720;23;20004;-71
2024/01/03 06:20:18;;;;;;;24.90;15.20;;;8.10;99.90;;;;;;6245539;23;20007;-71
2024/01/03 06:22:44;;;;;;;23.17;13.53;;;8.10;99.90;;;;;;6244829;23;20004;-72
2024/01/03 06:25:10;;;;;;;17.90;12.80;;;8.20;99.90;;;;;;6245076;23;20005;-72
2024/01/03 06:27:36;;;;;;;19.70;12.50;;;8.10;99.90;;;;;;6245185;23;20032;-72
2024/01/03 06:30:01;;;;;;;20.33;12.87;;;8.10;99.90;;;;;;6245523;23;20007;-71
2024/01/03 06:32:27;;;;;;;22.70;14.07;;;8.10;99.90;;;;;;6245830;23;20027;-72
2024/01/03 06:34:53;;;;;;;19.23;13.27;;;8.20;99.90;;;;;;6245293;23;20098;-71
2024/01/03 06:37:19;;;;;;;19.60;12.97;;;8.20;99.90;;;;;;6245588;23;20004;-72
2024/01/03 06:39:44;;;;;;;22.97;13.83;;;8.20;99.90;;;;;;6245416;23;20000;-72
2024/01/03 06:42:10;;;;;;;23.67;14.47;;;8.20;99.90;;;;;;6244695;23;20008;-72
2024/01/03 06:44:36;;;;;;;22.40;15.80;;;8.20;99.90;;;;;;6245670;23;20004;-71
2024/01/03 06:47:01;;;;;;;26.93;16.47;;;8.20;99.90;;;;;;6245290;23;20008;-71
2024/01/03 06:49:27;;;;;;;24.43;16.47;;;8.20;99.90;;;;;;6244405;23;20032;-71
2024/01/03 06:51:53;;;;;;;26.50;16.20;;;8.20;99.90;;;;;;6245464;23;20010;-71
2024/01/03 06:54:19;;;;;;;26.53;17.30;;;8.30;99.90;;;;;;6245002;23;20016;-71
2024/01/03 06:56:44;;;;;;;26.20;17.40;;;8.30;99.90;;;;;;6245259;23;20118;-70
2024/01/03 06:59:10;;;;;;;28.33;17.73;;;8.20;99.90;;;;;;6245579;23;20008;-70
2024/01/03 07:01:37;;;;;;;34.57;18.53;;;8.20;99.90;;;;;;6242882;23;20381;-70
2024/01/03 07:04:03;;;;;;;27.67;16.87;;;8.30;99.90;;;;;;6243412;23;20035;-70
2024/01/03 07:06:29;;;;;;;28.30;17.70;;;8.30;99.90;;;;;;6242989;23;20038;-69
2024/01/03 07:08:55;;;;;;;27.87;17.27;;;8.20;99.90;;;;;;6244879;23;20000;-69
2024/01/03 07:11:20;;;;;;;25.33;15.63;;;8.30;99.90;;;;;;6217885;23;20000;-69
2024/01/03 07:13:46;;;;;;;27.57;16.30;;;8.30;99.90;;;;;;6244803;23;20091;-70
2024/01/03 07:16:12;;;;;;;21.30;15.80;;;8.30;99.90;;;;;;6244569;23;20000;-69
2024/01/03 07:18:38;;;;;;;24.00;16.27;;;8.40;99.90;;;;;;6245407;23;20054;-70
2024/01/03 07:21:04;;;;;;;23.40;15.87;;;8.40;99.90;;;;;;6245457;23;20070;-69
2024/01/03 07:23:30;;;;;;;23.13;16.03;;;8.40;99.90;;;;;;6245328;23;19996;-69
2024/01/03 07:25:56;;;;;;;22.03;16.10;;;8.30;99.90;;;;;;6245575;23;20059;-68
2024/01/03 07:28:21;;;;;;;28.20;17.30;;;8.30;99.90;;;;;;6245466;23;20122;-74
2024/01/03 07:30:47;;;;;;;26.10;16.87;;;8.30;99.90;;;;;;6245275;23;20000;-68
2024/01/03 07:33:13;;;;;;;25.13;17.03;;;8.20;99.90;;;;;;6245626;23;20004;-68
2024/01/03 07:35:38;;;;;;;25.67;16.57;;;8.20;99.90;;;;;;6245404;23;20004;-68
2024/01/03 07:38:06;;;;;;;25.07;16.97;;;8.20;99.90;;;;;;6247389;23;19997;-68
2024/01/03 07:40:31;;;;;;;23.77;16.17;;;8.30;99.90;;;;;;6220770;23;20311;-67
2024/01/03 07:42:57;;;;;;;24.17;16.50;;;8.30;99.90;;;;;;6247563;23;20000;-67
2024/01/03 07:45:23;;;;;;;22.33;15.23;;;8.30;99.90;;;;;;6247455;23;20004;-70
2024/01/03 07:47:49;;;;;;;23.63;15.27;;;8.30;99.90;;;;;;6247314;23;20008;-72
2024/01/03 07:50:15;;;;;;;23.47;15.00;;;8.30;99.90;;;;;;6247385;23;20046;-75
2024/01/03 07:52:43;;;;;;;22.33;14.83;;;8.30;99.90;;;;;;6247547;23;20000;-67
2024/01/03 07:55:10;;;;;;;26.17;16.07;;;8.30;99.90;;;;;;6246900;23;20074;-67
2024/01/03 07:57:36;;;;;;;25.17;15.23;;;8.40;99.90;;;;;;6246701;23;20039;-66
2024/01/03 08:00:02;;;;;;;23.83;15.30;;;8.40;99.90;;;;;;6247178;23;20004;-67
2024/01/03 08:02:28;;;;;;;25.03;16.10;;;8.40;99.90;;;;;;6247033;23;20331;-68
2024/01/03 08:04:54;;;;;;;21.93;14.07;;;8.40;99.90;;;;;;6247205;23;20490;-67
2024/01/03 08:07:20;;;;;;;20.87;13.40;;;8.40;99.90;;;;;;6246796;23;20027;-67
2024/01/03 08:09:47;;;;;;;26.10;15.43;;;8.40;99.90;;;;;;6246833;23;20000;-68
2024/01/03 08:12:12;;;;;;;24.20;14.77;;;8.40;99.90;;;;;;6246891;23;20308;-68
2024/01/03 08:14:38;;;;;;;21.90;14.57;;;8.40;99.90;;;;;;6246953;23;20019;-67
2024/01/03 08:17:04;;;;;;;21.50;14.50;;;8.40;99.90;;;;;;6247053;23;20000;-67
2024/01/03 08:19:30;;;;;;;21.37;14.00;;;8.40;99.90;;;;;;6246319;23;20012;-67
2024/01/03 08:21:56;;;;;;;20.67;13.60;;;8.40;99.90;;;;;;6247012;23;20023;-67
2024/01/03 08:24:22;;;;;;;21.20;13.73;;;8.40;99.90;;;;;;6247126;23;20000;-68
2024/01/03 08:26:49;;;;;;;20.83;13.47;;;8.40;99.90;;;;;;6246851;23;20000;-67
2024/01/03 08:29:15;;;;;;;24.93;14.20;;;8.40;99.90;;;;;;6247135;23;20007;-68
2024/01/03 08:31:41;;;;;;;20.03;13.03;;;8.50;99.90;;;;;;6246772;23;20054;-67
2024/01/03 08:34:07;;;;;;;22.33;14.17;;;8.50;99.90;;;;;;6246643;23;20020;-69
2024/01/03 08:36:43;;;;;;;18.60;14.17;;;8.50;99.90;;;;;;6246340;23;20000;-68
2024/01/03 08:39:09;;;;;;;21.00;13.50;;;8.50;99.90;;;;;;6246876;23;20414;-67
2024/01/03 08:41:36;;;;;;;19.97;14.03;;;8.50;99.90;;;;;;6246905;23;20000;-67
2024/01/03 08:44:03;;;;;;;27.50;17.00;;;8.50;99.90;;;;;;6247424;23;20043;-67
2024/01/03 08:46:31;;;;;;;26.57;17.90;;;8.50;99.90;;;;;;6246525;23;20023;-67
2024/01/03 08:48:57;;;;;;;25.73;16.27;;;8.50;99.90;;;;;;6246702;23;20010;-67
2024/01/03 08:51:23;;;;;;;27.10;16.60;;;8.50;99.90;;;;;;6246809;23;20003;-67
2024/01/03 08:53:50;;;;;;;26.37;17.10;;;8.50;99.90;;;;;;6246491;23;20023;-67
2024/01/03 08:56:16;;;;;;;31.77;18.50;;;8.50;99.90;;;;;;6246370;23;20054;-67
2024/01/03 08:58:43;;;;;;;27.33;17.47;;;8.50;99.90;;;;;;6247069;23;20019;-67
2024/01/03 09:01:14;;;;;;;28.00;18.30;;;8.60;99.90;;;;;;6246771;23;20423;-68
2024/01/03 09:03:40;;;;;;;26.67;17.87;;;8.50;99.90;;;;;;6247080;23;20304;-67
2024/01/03 09:06:06;;;;;;;26.50;19.00;;;8.50;99.90;;;;;;6246385;23;20062;-67
2024/01/03 09:08:32;;;;;;;28.23;19.77;;;8.60;99.90;;;;;;6244749;23;20004;-67
2024/01/03 09:10:58;;;;;;;29.93;20.00;;;8.50;99.90;;;;;;6246518;23;20000;-67
2024/01/03 09:13:24;;;;;;;27.07;20.47;;;8.60;99.90;;;;;;6246748;23;20430;-68
2024/01/03 09:15:51;;;;;;;27.17;19.07;;;8.50;99.90;;;;;;6246879;23;20012;-68
2024/01/03 09:18:17;;;;;;;26.93;19.17;;;8.60;99.90;;;;;;6246347;23;20024;-67
2024/01/03 09:20:42;;;;;;;32.93;20.20;;;8.60;99.90;;;;;;6246416;23;20311;-67
2024/01/03 09:23:08;;;;;;;28.73;19.73;;;8.60;99.90;;;;;;6246565;23;19996;-68
2024/01/03 09:25:34;;;;;;;28.63;19.70;;;8.60;99.90;;;;;;6246624;23;20035;-67
2024/01/03 09:28:00;;;;;;;28.53;19.47;;;8.60;99.90;;;;;;6246628;23;20000;-67
2024/01/03 09:30:26;;;;;;;26.77;19.53;;;8.60;99.90;;;;;;6246517;23;20030;-67
2024/01/03 09:32:52;;;;;;;22.17;15.93;;;8.60;99.90;;;;;;6246374;23;20071;-68
2024/01/03 09:35:18;;;;;;;22.20;13.87;;;8.60;99.90;;;;;;6246420;23;20019;-67
2024/01/03 09:37:44;;;;;;;21.27;13.17;;;8.60;99.90;;;;;;6219227;23;20375;-67
2024/01/03 09:40:12;;;;;;;20.87;13.17;;;8.60;99.90;;;;;;6245849;23;20043;-67
2024/01/03 09:42:38;;;;;;;18.50;13.07;;;8.60;99.90;;;;;;6246268;23;20022;-67
2024/01/03 09:45:05;;;;;;;25.97;15.50;;;8.60;99.90;;;;;;6246084;23;20049;-67
2024/01/03 09:47:31;;;;;;;27.97;17.40;;;8.60;99.90;;;;;;6246297;23;20708;-67
2024/01/03 09:49:57;;;;;;;31.27;17.97;;;8.60;99.90;;;;;;6246275;23;20050;-67
2024/01/03 09:52:23;;;;;;;33.77;17.93;;;8.60;99.90;;;;;;6246095;23;20099;-67
2024/01/03 09:54:50;;;;;;;35.77;20.57;;;8.60;99.90;;;;;;6245769;23;20020;-67
2024/01/03 09:57:19;;;;;;;35.60;20.63;;;8.50;99.90;;;;;;6219351;23;20007;-67
2024/01/03 09:59:45;;;;;;;36.03;20.43;;;8.60;99.90;;;;;;6245331;23;20007;-67
2024/01/03 10:02:12;;;;;;;39.63;24.70;;;8.60;99.90;;;;;;6246102;23;20004;-67
2024/01/03 10:04:43;;;;;;;56.40;31.57;;;8.60;99.90;;;;;;6245936;23;19996;-68
2024/01/03 10:07:09;;;;;;;50.47;29.90;;;8.60;99.90;;;;;;6246131;23;20000;-67
2024/01/03 10:09:44;;;;;;;67.50;41.13;;;8.60;99.90;;;;;;6245935;23;20015;-67
2024/01/03 10:12:19;;;;;;;47.23;28.90;;;8.60;99.90;;;;;;6245211;23;20071;-68
2024/01/03 10:14:45;;;;;;;26.07;18.10;;;8.60;99.90;;;;;;6245669;23;20019;-68
2024/01/03 10:17:11;;;;;;;24.33;16.77;;;8.60;99.90;;;;;;6245854;23;20319;-68
2024/01/03 10:19:37;;;;;;;26.33;16.37;;;8.60;99.90;;;;;;6245658;23;20004;-67
2024/01/03 10:22:04;;;;;;;24.83;15.37;;;8.70;99.90;;;;;;6245568;23;20000;-68
2024/01/03 10:24:31;;;;;;;22.63;15.73;;;8.70;99.90;;;;;;6246149;23;20032;-68
2024/01/03 10:27:10;;;;;;;21.23;15.13;;;8.70;99.90;;;;;;6246096;23;20004;-68
2024/01/03 10:29:39;;;;;;;25.17;14.57;;;8.70;99.90;;;;;;6245889;23;20075;-68
2024/01/03 10:32:09;;;;;;;34.60;25.10;;;8.80;99.90;;;;;;6245702;23;20004;-67
2024/01/03 10:34:36;;;;;;;39.17;27.10;;;8.80;99.90;;;;;;6245512;23;20008;-68
2024/01/03 10:37:03;;;;;;;37.17;24.47;;;8.80;99.90;;;;;;6245738;23;20000;-68
2024/01/03 10:39:31;;;;;;;30.97;19.97;;;8.80;99.90;;;;;;6246008;23;20375;-68
2024/01/03 10:41:58;;;;;;;23.93;15.63;;;8.80;99.90;;;;;;6245660;23;20000;-68
2024/01/03 10:44:25;;;;;;;27.57;15.67;;;8.80;99.90;;;;;;6245369;23;20388;-67
2024/01/03 10:46:55;;;;;;;26.70;17.00;;;8.80;99.90;;;;;;6245657;23;20007;-68
2024/01/03 10:49:21;;;;;;;35.93;19.40;;;8.80;99.90;;;;;;6245805;23;20338;-67
2024/01/03 10:51:55;;;;;;;289.47;34.43;;;8.90;99.90;;;;;;6245738;23;20000;-68
2024/01/03 10:54:22;;;;;;;1980.03;163.43;;;9.00;99.90;;;;;;6245490;23;20091;-68
2024/01/03 10:56:49;;;;;;;185.40;24.30;;;9.10;99.90;;;;;;6243987;23;19996;-67
2024/01/03 10:59:17;;;;;;;22.23;14.93;;;9.10;99.90;;;;;;6218381;23;20008;-68
2024/01/03 11:01:49;;;;;;;25.33;15.03;;;9.10;99.90;;;;;;6245678;23;20079;-67
2024/01/03 11:04:37;;;;;;;18.20;11.60;;;9.10;99.90;;;;;;6245234;23;20099;-67
2024/01/03 11:07:20;;;;;;;18.57;11.40;;;9.00;99.90;;;;;;6245424;23;20031;-68
2024/01/03 11:09:45;;;;;;;19.08;13.75;;;9.00;99.90;;;;;;6245119;23;20028;-67
2024/01/03 11:12:15;;;;;;;20.83;14.33;;;9.00;99.90;;;;;;6245138;23;19996;-67
2024/01/03 11:14:41;;;;;;;22.03;14.07;;;9.00;99.90;;;;;;6244741;23;20312;-67
2024/01/03 11:17:10;;;;;;;20.53;14.37;;;9.00;99.90;;;;;;6245312;23;20008;-68
2024/01/03 11:19:38;;;;;;;23.47;13.87;;;9.00;99.90;;;;;;6245021;23;20075;-67
2024/01/03 11:22:04;;;;;;;20.37;14.20;;;9.00;99.90;;;;;;6244811;23;20007;-68
2024/01/03 11:24:33;;;;;;;19.57;12.73;;;9.00;99.90;;;;;;6245059;23;20008;-67
2024/01/03 11:27:04;;;;;;;26.43;13.13;;;9.00;99.90;;;;;;6245367;23;20048;-67
2024/01/03 11:29:35;;;;;;;25.37;15.73;;;9.00;99.90;;;;;;6244525;23;20029;-67
2024/01/03 11:32:04;;;;;;;21.00;14.40;;;9.00;99.90;;;;;;6245340;23;20431;-68
2024/01/03 11:34:37;;;;;;;21.60;14.13;;;9.00;99.90;;;;;;6218126;23;20027;-68
2024/01/03 11:37:16;;;;;;;22.70;14.73;;;9.00;99.90;;;;;;6245221;23;20007;-67
2024/01/03 11:39:43;;;;;;;25.97;15.37;;;9.00;99.90;;;;;;6245123;23;20449;-67
2024/01/03 11:42:09;;;;;;;29.03;15.00;;;9.00;99.90;;;;;;6218336;23;20008;-67
2024/01/03 11:44:36;;;;;;;23.60;15.17;;;9.00;99.90;;;;;;6244857;23;20431;-67
2024/01/03 11:47:03;;;;;;;22.93;15.50;;;9.00;99.90;;;;;;6244836;23;20001;-68
2024/01/03 11:49:29;;;;;;;24.60;15.93;;;9.00;99.90;;;;;;6245078;23;20003;-67
2024/01/03 11:51:57;;;;;;;23.83;15.00;;;9.00;99.90;;;;;;6245163;23;20007;-67
2024/01/03 11:54:23;;;;;;;26.50;16.07;;;9.00;99.90;;;;;;6245013;22;20016;-68
2024/01/03 11:56:49;;;;;;;28.43;17.07;;;9.00;99.90;;;;;;6245508;23;20014;-68
2024/01/03 11:59:20;;;;;;;26.10;16.67;;;9.10;99.90;;;;;;6245372;23;20020;-69
2024/01/03 12:02:05;;;;;;;25.20;15.80;;;9.00;99.90;;;;;;6245774;23;20353;-69
2024/01/03 12:04:30;;;;;;;29.80;16.93;;;9.10;99.90;;;;;;6245561;23;20000;-69
2024/01/03 12:06:57;;;;;;;26.70;17.20;;;9.10;99.90;;;;;;6244927;23;20000;-68
2024/01/03 12:09:28;;;;;;;30.90;18.10;;;9.10;99.90;;;;;;6245512;23;20004;-68
2024/01/03 12:11:55;;;;;;;28.00;17.87;;;9.10;99.90;;;;;;6245282;23;20008;-68
2024/01/03 12:14:21;;;;;;;25.93;16.60;;;9.10;99.90;;;;;;6245150;23;20020;-68
2024/01/03 12:16:47;;;;;;;30.00;19.27;;;9.20;99.90;;;;;;6245170;23;20075;-69
2024/01/03 12:19:32;;;;;;;30.57;17.80;;;9.20;99.90;;;;;;6245159;23;20000;-68
2024/01/03 12:21:59;;;;;;;26.00;16.47;;;9.20;99.90;;;;;;6244938;23;20027;-68
2024/01/03 12:24:57;;;;;;;32.10;17.20;;;9.20;99.90;;;;;;6247135;23;20004;-68
2024/01/03 12:27:23;;;;;;;26.00;15.83;;;9.20;99.90;;;;;;6213142;23;20004;-68
2024/01/03 12:29:51;;;;;;;25.40;15.47;;;9.20;99.90;;;;;;6247231;23;20018;-69
2024/01/03 12:32:18;;;;;;;23.83;15.13;;;9.20;99.90;;;;;;6246878;23;20011;-68
2024/01/03 12:34:46;;;;;;;26.33;15.23;;;9.20;99.90;;;;;;6247034;23;20008;-69